Time;durP1;ratioP1;P1;durP2;ratioP2;P2;SDS_P1;SDS_P2;PMS_P1;PMS_P2;Temp;Humidity;BMP_temperature;BMP_pressure;BME280_temperature;BME280_humidity;BME280_pressure;Samples;Min_cycle;Max_cycle;Signal;HPM_P1;HPM_P2
2022/10/21 00:02:18;;;;;;;0.20;0.13;;;;;;;11.19;100.00;96211.81;4911263;29;20039;-76
2022/10/21 00:05:04;;;;;;;0.10;0.10;;;;;;;11.20;100.00;96205.38;4913328;29;20040;-75
2022/10/21 00:07:50;;;;;;;0.10;0.10;;;;;;;11.19;100.00;96203.78;4914143;29;20123;-75
2022/10/21 00:10:36;;;;;;;0.10;0.10;;;;;;;11.25;100.00;96189.34;4913156;29;20048;-75
2022/10/21 00:13:23;;;;;;;0.10;0.10;;;;;;;11.27;100.00;96191.75;4912177;29;20653;-75
2022/10/21 00:16:13;;;;;;;0.10;0.10;;;;;;;11.23;100.00;96182.66;4910254;29;20385;-75
2022/10/21 00:18:59;;;;;;;0.10;0.10;;;;;;;11.26;100.00;96174.09;4913230;29;20051;-75
2022/10/21 00:21:45;;;;;;;0.10;0.10;;;;;;;11.26;100.00;96152.66;4913491;29;20141;-74
2022/10/21 00:24:31;;;;;;;0.10;0.10;;;;;;;11.28;100.00;96147.84;4910489;29;20052;-75
2022/10/21 00:27:17;;;;;;;0.10;0.10;;;;;;;11.35;100.00;96143.84;4912812;29;20433;-76
2022/10/21 00:30:05;;;;;;;0.10;0.10;;;;;;;11.36;100.00;96142.81;4909257;29;20051;-75
2022/10/21 00:32:51;;;;;;;0.10;0.10;;;;;;;11.34;100.00;96136.09;4912403;29;20040;-74
2022/10/21 00:35:37;;;;;;;0.10;0.10;;;;;;;11.32;100.00;96143.59;4905323;29;20051;-74
2022/10/21 00:38:24;;;;;;;0.10;0.10;;;;;;;11.30;100.00;96143.84;4910203;29;20504;-76
2022/10/21 00:41:10;;;;;;;0.10;0.10;;;;;;;11.30;100.00;96124.31;4912941;29;20512;-75
2022/10/21 00:44:06;;;;;;;0.10;0.10;;;;;;;11.31;100.00;96117.88;4914378;29;20389;-74
2022/10/21 00:47:00;;;;;;;0.10;0.10;;;;;;;11.25;100.00;96114.34;4915870;29;20572;-75
2022/10/21 00:49:59;;;;;;;0.10;0.10;;;;;;;11.18;100.00;96111.09;4913864;29;20039;-73
2022/10/21 00:52:45;;;;;;;0.10;0.10;;;;;;;11.11;100.00;96123.91;4913211;29;20055;-75
2022/10/21 00:55:35;;;;;;;0.10;0.10;;;;;;;11.12;100.00;96138.91;4900387;29;20519;-75
2022/10/21 00:58:25;;;;;;;0.10;0.10;;;;;;;11.14;100.00;96123.41;4908164;29;20036;-73
2022/10/21 01:01:11;;;;;;;0.30;0.20;;;;;;;11.20;100.00;96121.56;4913725;29;20126;-73
2022/10/21 01:03:57;;;;;;;0.60;0.30;;;;;;;11.19;100.00;96112.72;4911300;29;20047;-75
2022/10/21 01:06:44;;;;;;;0.40;0.20;;;;;;;11.16;100.00;96102.53;4911889;29;20238;-74
2022/10/21 01:09:30;;;;;;;0.32;0.22;;;;;;;11.18;100.00;96078.97;4910288;28;20683;-75
2022/10/21 01:12:42;;;;;;;1.75;0.70;;;;;;;11.21;100.00;96091.06;4912156;29;20035;-75
2022/10/21 01:16:15;;;;;;;1.85;0.75;;;;;;;11.25;100.00;96095.59;4909872;29;20059;-74
2022/10/21 01:19:22;;;;;;;2.10;1.02;;;;;;;11.23;100.00;96086.22;4911689;29;20043;-74
2022/10/21 01:22:42;;;;;;;2.58;1.25;;;;;;;11.20;100.00;96094.78;4906602;29;20515;-75
2022/10/21 01:25:46;;;;;;;3.47;1.60;;;;;;;11.18;100.00;96083.53;4907700;29;20055;-74
2022/10/21 01:29:09;;;;;;;2.53;1.15;;;;;;;11.15;100.00;96092.88;4913033;29;20083;-75
2022/10/21 01:32:34;;;;;;;2.53;1.23;;;;;;;11.13;100.00;96100.38;4913441;28;20146;-76
2022/10/21 01:35:27;;;;;;;2.17;1.00;;;;;;;11.12;100.00;96098.75;4894610;29;20055;-75
2022/10/21 01:38:28;;;;;;;3.80;1.83;;;;;;;11.14;100.00;96091.28;4911711;29;20078;-76
2022/10/21 01:41:34;;;;;;;4.25;2.05;;;;;;;11.16;100.00;96086.47;4913563;29;20456;-74
2022/10/21 01:44:28;;;;;;;3.03;1.58;;;;;;;11.19;100.00;96088.59;4911074;29;20044;-74
2022/10/21 01:47:19;;;;;;;4.18;2.17;;;;;;;11.23;100.00;96076.31;4911000;29;20051;-74
2022/10/21 01:50:12;;;;;;;4.28;2.22;;;;;;;11.27;100.00;96072.03;4911890;29;20412;-74
2022/10/21 01:53:06;;;;;;;3.25;1.70;;;;;;;11.29;100.00;96064.56;4912681;29;20150;-76
2022/10/21 01:55:56;;;;;;;3.50;1.77;;;;;;;11.31;100.00;96065.09;4900169;29;20070;-75
2022/10/21 01:58:44;;;;;;;1.17;0.60;;;;;;;11.34;100.00;96058.41;4909742;29;20039;-74
2022/10/21 02:01:32;;;;;;;4.60;2.38;;;;;;;11.39;100.00;96056.56;4914116;29;20048;-76
2022/10/21 02:04:20;;;;;;;3.72;1.85;;;;;;;11.40;100.00;96066.19;4895883;29;20040;-75
2022/10/21 02:07:06;;;;;;;5.88;3.40;;;;;;;11.45;100.00;96065.44;4911142;29;20065;-75
2022/10/21 02:09:52;;;;;;;3.58;2.17;;;;;;;11.40;100.00;96057.38;4910788;29;20067;-73
2022/10/21 02:12:41;;;;;;;6.72;3.90;;;;;;;11.42;100.00;96045.31;4917308;29;20039;-74
2022/10/21 02:15:29;;;;;;;7.00;4.20;;;;;;;11.40;100.00;96031.38;4916133;29;20118;-74
2022/10/21 02:18:23;;;;;;;2.50;1.33;;;;;;;11.40;100.00;96022.53;4914715;29;20067;-76
2022/10/21 02:21:14;;;;;;;4.78;2.40;;;;;;;11.43;100.00;96019.31;4916029;29;20043;-74
2022/10/21 02:24:05;;;;;;;4.75;2.45;;;;;;;11.46;100.00;96013.44;4915025;29;20318;-75
2022/10/21 02:26:51;;;;;;;5.88;3.35;;;;;;;11.53;100.00;96026.59;4915879;29;20051;-74
2022/10/21 02:29:43;;;;;;;4.60;2.35;;;;;;;11.53;100.00;96019.38;4917183;29;20305;-74
2022/10/21 02:32:44;;;;;;;2.53;1.25;;;;;;;11.53;100.00;96032.75;4901695;29;20060;-76
2022/10/21 02:35:36;;;;;;;3.53;1.85;;;;;;;11.52;100.00;96019.63;4914435;29;20142;-74
2022/10/21 02:38:34;;;;;;;3.47;1.67;;;;;;;11.48;100.00;96015.84;4914217;29;20070;-74
2022/10/21 02:41:23;;;;;;;3.42;1.77;;;;;;;11.49;100.00;96012.91;4914362;29;20076;-75
2022/10/21 02:44:09;;;;;;;2.08;0.93;;;;;;;11.54;100.00;96009.44;4914298;29;20040;-74
2022/10/21 02:46:55;;;;;;;1.65;0.65;;;;;;;11.54;100.00;95993.38;4912271;29;20043;-74
2022/10/21 02:49:43;;;;;;;1.42;0.60;;;;;;;11.47;100.00;95998.19;4914710;29;20599;-75
2022/10/21 02:52:29;;;;;;;0.73;0.30;;;;;;;11.49;100.00;95993.34;4914034;29;20059;-75
2022/10/21 02:55:15;;;;;;;0.50;0.30;;;;;;;11.45;100.00;96001.13;4913392;29;20126;-76
2022/10/21 02:58:01;;;;;;;0.10;0.10;;;;;;;11.40;100.00;96007.28;4915813;29;20158;-74
2022/10/21 03:00:47;;;;;;;0.30;0.20;;;;;;;11.39;100.00;96002.97;4916914;29;20550;-74
2022/10/21 03:03:33;;;;;;;1.75;0.75;;;;;;;11.40;100.00;96028.69;4914226;29;20043;-75
2022/10/21 03:06:19;;;;;;;1.33;0.50;;;;;;;11.40;100.00;96025.22;4915539;29;20047;-75
2022/10/21 03:09:04;;;;;;;1.33;0.57;;;;;;;11.36;100.00;96024.94;4913501;29;20031;-74
2022/10/21 03:11:50;;;;;;;1.30;0.50;;;;;;;11.36;100.00;96029.47;4915752;29;20048;-76
2022/10/21 03:14:36;;;;;;;0.30;0.22;;;;;;;11.40;100.00;96028.69;4917464;29;20048;-75
2022/10/21 03:17:22;;;;;;;0.85;0.35;;;;;;;11.33;100.00;96014.75;4913142;29;20520;-75
2022/10/21 03:20:08;;;;;;;0.82;0.40;;;;;;;11.39;100.00;96029.78;4915783;29;20043;-75
2022/10/21 03:22:54;;;;;;;1.88;0.88;;;;;;;11.42;100.00;96026.56;4914288;29;20075;-75
2022/10/21 03:25:42;;;;;;;0.75;0.30;;;;;;;11.40;100.00;96028.69;4914755;29;20480;-74
2022/10/21 03:28:29;;;;;;;0.10;0.10;;;;;;;11.40;100.00;96015.31;4911396;28;20135;-75
2022/10/21 03:31:15;;;;;;;0.10;0.10;;;;;;;11.41;100.00;96008.88;4893493;29;20431;-74
2022/10/21 03:34:01;;;;;;;0.10;0.10;;;;;;;11.42;100.00;95999.75;4910740;29;20146;-74
2022/10/21 03:36:47;;;;;;;0.38;0.20;;;;;;;11.46;100.00;95994.69;4915176;29;20948;-75
2022/10/21 03:39:32;;;;;;;0.10;0.10;;;;;;;11.44;100.00;95986.13;4918628;29;20179;-75
2022/10/21 03:42:18;;;;;;;0.20;0.20;;;;;;;11.47;100.00;95985.59;4913551;29;20111;-76
2022/10/21 03:45:04;;;;;;;0.10;0.10;;;;;;;11.57;100.00;95982.13;4911999;29;20053;-75
2022/10/21 03:47:51;;;;;;;0.20;0.20;;;;;;;11.52;100.00;95979.44;4916621;29;20365;-74
2022/10/21 03:50:36;;;;;;;0.10;0.10;;;;;;;11.47;100.00;95982.91;4916415;29;20043;-75
2022/10/21 03:53:23;;;;;;;0.10;0.10;;;;;;;11.42;100.00;95977.53;4912244;29;20059;-74
2022/10/21 03:56:08;;;;;;;0.10;0.10;;;;;;;11.46;100.00;95983.19;4913590;29;20072;-74
2022/10/21 03:58:54;;;;;;;0.10;0.10;;;;;;;11.42;100.00;95975.66;4916248;29;20039;-75
2022/10/21 04:01:40;;;;;;;0.20;0.10;;;;;;;11.42;100.00;95975.66;4912672;29;20159;-76
2022/10/21 04:04:26;;;;;;;0.10;0.10;;;;;;;11.40;100.00;95977.81;4914774;28;20968;-74
2022/10/21 04:07:12;;;;;;;0.10;0.10;;;;;;;11.42;100.00;95972.16;4915439;29;20127;-74
2022/10/21 04:09:57;;;;;;;0.10;0.10;;;;;;;11.47;100.00;95971.38;4916799;29;20043;-75
2022/10/21 04:12:43;;;;;;;0.20;0.20;;;;;;;11.48;100.00;95979.16;4916015;29;20040;-74
2022/10/21 04:15:29;;;;;;;0.43;0.22;;;;;;;11.46;100.00;95964.44;4915875;29;20181;-76
2022/10/21 04:18:15;;;;;;;0.10;0.10;;;;;;;11.46;100.00;95964.44;4910272;29;20039;-77
2022/10/21 04:21:01;;;;;;;0.10;0.10;;;;;;;11.40;100.00;95977.81;4920626;29;20125;-74
2022/10/21 04:23:47;;;;;;;0.10;0.10;;;;;;;11.46;100.00;95969.78;4912427;29;20064;-74
2022/10/21 04:26:33;;;;;;;0.10;0.10;;;;;;;11.50;100.00;95971.66;4915033;29;20056;-73
2022/10/21 04:29:18;;;;;;;0.10;0.10;;;;;;;11.47;100.00;95950.75;4914321;29;20059;-75
2022/10/21 04:32:04;;;;;;;0.13;0.13;;;;;;;11.49;100.00;95959.31;4915419;29;20040;-75
2022/10/21 04:34:50;;;;;;;0.10;0.10;;;;;;;11.55;100.00;95958.28;4904056;29;20074;-75
2022/10/21 04:37:38;;;;;;;0.10;0.10;;;;;;;11.59;100.00;95959.31;4912431;29;21068;-73
2022/10/21 04:40:25;;;;;;;0.10;0.10;;;;;;;11.56;100.00;95953.72;4912441;29;20104;-76
2022/10/21 04:43:11;;;;;;;0.17;0.17;;;;;;;11.58;100.00;95951.56;4911747;29;20379;-73
2022/10/21 04:45:59;;;;;;;0.20;0.15;;;;;;;11.57;100.00;95952.63;4913349;29;20043;-75
2022/10/21 04:48:45;;;;;;;0.10;0.10;;;;;;;11.60;100.00;95962.84;4912080;29;20365;-73
2022/10/21 04:51:31;;;;;;;0.10;0.10;;;;;;;11.57;100.00;95955.31;4914635;28;20051;-74
2022/10/21 04:54:17;;;;;;;0.10;0.10;;;;;;;11.56;100.00;95953.72;4906625;29;20039;-75
2022/10/21 04:57:03;;;;;;;0.10;0.10;;;;;;;11.57;100.00;95958.00;4913539;29;20150;-75
2022/10/21 04:59:49;;;;;;;0.10;0.10;;;;;;;11.61;100.00;95951.06;4914859;29;20071;-74
2022/10/21 05:02:35;;;;;;;0.10;0.10;;;;;;;11.57;100.00;95944.59;4913018;29;20048;-74
2022/10/21 05:05:20;;;;;;;0.10;0.10;;;;;;;11.56;100.00;95941.13;4911802;29;20055;-74
2022/10/21 05:08:08;;;;;;;0.28;0.20;;;;;;;11.62;100.00;95947.28;4913389;29;20086;-75
2022/10/21 05:10:59;;;;;;;0.40;0.20;;;;;;;11.54;100.00;95935.22;4903632;29;20044;-76
2022/10/21 05:13:45;;;;;;;0.80;0.40;;;;;;;11.60;100.00;95931.50;4911757;29;20091;-74
2022/10/21 05:16:30;;;;;;;0.35;0.20;;;;;;;11.60;100.00;95938.72;4912138;29;20516;-74
2022/10/21 05:19:16;;;;;;;0.30;0.10;;;;;;;11.62;100.00;95928.53;4911725;29;20319;-76
2022/10/21 05:22:02;;;;;;;0.20;0.20;;;;;;;11.62;100.00;95931.22;4915870;29;20047;-76
2022/10/21 05:24:48;;;;;;;0.20;0.17;;;;;;;11.58;100.00;95936.28;4911029;29;20367;-74
2022/10/21 05:27:34;;;;;;;0.20;0.10;;;;;;;11.60;100.00;95928.81;4914857;29;20036;-75
2022/10/21 05:30:20;;;;;;;0.10;0.10;;;;;;;11.62;100.00;95925.84;4913203;29;20044;-75
2022/10/21 05:33:05;;;;;;;0.10;0.10;;;;;;;11.63;100.00;95922.09;4914953;28;20471;-75
2022/10/21 05:36:00;;;;;;;0.10;0.10;;;;;;;11.61;100.00;95917.00;4916079;29;20051;-75
2022/10/21 05:38:49;;;;;;;0.10;0.10;;;;;;;11.61;100.00;95902.81;4914875;29;20043;-76
2022/10/21 05:41:35;;;;;;;0.10;0.10;;;;;;;11.63;100.00;95900.66;4915708;29;20048;-76
2022/10/21 05:44:21;;;;;;;0.10;0.10;;;;;;;11.58;100.00;95889.94;4910901;29;20048;-75
2022/10/21 05:47:07;;;;;;;0.10;0.10;;;;;;;11.60;100.00;95904.69;4908273;29;20035;-76
2022/10/21 05:49:53;;;;;;;0.20;0.20;;;;;;;11.60;100.00;95909.25;4913466;29;20055;-75
2022/10/21 05:52:39;;;;;;;0.20;0.20;;;;;;;11.56;100.00;95910.84;4911369;29;20111;-76
2022/10/21 05:55:25;;;;;;;0.52;0.30;;;;;;;11.55;100.00;95904.69;4913111;29;20050;-75
2022/10/21 05:58:11;;;;;;;0.20;0.20;;;;;;;11.57;100.00;95918.59;4909259;29;20051;-75
2022/10/21 06:00:58;;;;;;;0.20;0.20;;;;;;;11.52;100.00;95917.81;4912241;29;20048;-76
2022/10/21 06:03:44;;;;;;;0.10;0.10;;;;;;;11.59;100.00;95913.78;4913401;29;20055;-75
2022/10/21 06:06:30;;;;;;;0.20;0.20;;;;;;;11.60;100.00;95906.56;4911243;29;20055;-75
2022/10/21 06:09:15;;;;;;;0.20;0.20;;;;;;;11.56;100.00;95924.25;4912965;29;20041;-75
2022/10/21 06:12:01;;;;;;;0.22;0.20;;;;;;;11.62;100.00;95910.56;4915164;29;20103;-75
2022/10/21 06:14:47;;;;;;;1.23;0.50;;;;;;;11.57;100.00;95907.88;4912012;29;20659;-76
2022/10/21 06:17:33;;;;;;;0.75;0.30;;;;;;;11.68;100.00;95914.06;4914688;29;20048;-77
2022/10/21 06:20:19;;;;;;;1.35;0.60;;;;;;;11.67;100.00;95909.75;4901411;29;20043;-78
2022/10/21 06:23:04;;;;;;;1.80;0.80;;;;;;;11.70;100.00;95906.56;4916925;29;20044;-76
2022/10/21 06:25:55;;;;;;;1.63;0.80;;;;;;;11.66;100.00;95908.16;4913427;29;20052;-75
2022/10/21 06:28:43;;;;;;;2.10;0.90;;;;;;;11.66;100.00;95924.22;4910597;29;20043;-76
2022/10/21 06:31:29;;;;;;;1.75;0.75;;;;;;;11.67;100.00;95912.44;4908917;29;20040;-74
2022/10/21 06:34:15;;;;;;;1.13;0.50;;;;;;;11.63;100.00;95924.78;4912462;29;20079;-77
2022/10/21 06:37:01;;;;;;;1.20;0.45;;;;;;;11.62;100.00;95915.13;4911550;29;20067;-77
2022/10/21 06:39:46;;;;;;;1.42;0.60;;;;;;;11.62;100.00;95918.63;4913230;29;20036;-75
2022/10/21 06:42:32;;;;;;;0.65;0.32;;;;;;;11.62;100.00;95912.47;4909747;29;20158;-76
2022/10/21 06:45:18;;;;;;;0.73;0.30;;;;;;;11.65;100.00;95917.28;4912054;29;20132;-76
2022/10/21 06:48:04;;;;;;;1.08;0.47;;;;;;;11.64;100.00;95910.31;4914258;29;20055;-74
2022/10/21 06:50:58;;;;;;;0.10;0.10;;;;;;;11.64;100.00;95918.34;4915821;29;20130;-75
2022/10/21 06:53:45;;;;;;;0.30;0.20;;;;;;;11.64;100.00;95918.34;4898404;29;20051;-76
2022/10/21 06:56:31;;;;;;;0.32;0.30;;;;;;;11.67;100.00;95915.13;4919222;29;20053;-75
2022/10/21 06:59:17;;;;;;;0.50;0.30;;;;;;;11.63;100.00;95914.88;4917406;29;20273;-75
2022/10/21 07:02:03;;;;;;;0.10;0.10;;;;;;;11.66;100.00;95917.00;4918168;29;20044;-77
2022/10/21 07:04:51;;;;;;;0.55;0.25;;;;;;;11.71;100.00;95914.31;4917354;29;20054;-76
2022/10/21 07:07:37;;;;;;;0.40;0.28;;;;;;;11.70;100.00;95919.97;4916739;29;20251;-75
2022/10/21 07:10:23;;;;;;;0.20;0.20;;;;;;;11.72;100.00;95917.81;4917327;29;20130;-76
2022/10/21 07:13:08;;;;;;;0.10;0.10;;;;;;;11.76;100.00;95921.56;4909926;29;20530;-75
2022/10/21 07:15:59;;;;;;;0.10;0.10;;;;;;;11.78;100.00;95926.66;4914730;29;20440;-75
2022/10/21 07:18:45;;;;;;;0.20;0.20;;;;;;;11.77;100.00;95928.53;4915516;29;20575;-77
2022/10/21 07:21:32;;;;;;;0.10;0.10;;;;;;;11.83;100.00;95929.34;4917992;29;20546;-75
2022/10/21 07:24:18;;;;;;;0.30;0.10;;;;;;;11.82;100.00;95917.03;4917383;29;20366;-77
2022/10/21 07:27:04;;;;;;;0.10;0.10;;;;;;;11.89;100.00;95928.28;4916465;29;20098;-78
2022/10/21 07:29:49;;;;;;;0.10;0.10;;;;;;;11.93;100.00;95926.69;4917602;29;20635;-76
2022/10/21 07:32:35;;;;;;;0.10;0.10;;;;;;;11.91;100.00;95928.84;4909304;29;20457;-77
2022/10/21 07:35:22;;;;;;;0.10;0.10;;;;;;;11.97;100.00;95930.41;4915077;29;20044;-75
2022/10/21 07:38:08;;;;;;;0.10;0.10;;;;;;;11.96;100.00;95942.22;4916395;29;20067;-77
2022/10/21 07:40:54;;;;;;;0.10;0.10;;;;;;;11.95;100.00;95929.88;4917172;29;20101;-76
2022/10/21 07:43:39;;;;;;;0.10;0.10;;;;;;;12.04;100.00;95935.50;4916010;29;20660;-75
2022/10/21 07:46:26;;;;;;;0.10;0.10;;;;;;;12.07;100.00;95946.53;4917533;29;20139;-76
2022/10/21 07:49:13;;;;;;;0.10;0.10;;;;;;;12.05;100.00;95947.84;4914054;29;20055;-76
2022/10/21 07:51:58;;;;;;;0.10;0.10;;;;;;;12.05;100.00;95953.19;4915167;29;20055;-76
2022/10/21 07:54:44;;;;;;;0.10;0.10;;;;;;;12.07;100.00;95954.56;4915724;29;20044;-75
2022/10/21 07:57:31;;;;;;;0.20;0.17;;;;;;;12.16;100.00;95952.13;4899366;29;20055;-76
2022/10/21 08:00:19;;;;;;;0.10;0.10;;;;;;;12.20;100.00;95948.63;4914528;29;20067;-75
2022/10/21 08:03:04;;;;;;;0.20;0.20;;;;;;;12.25;100.00;95961.25;4916242;29;20082;-77
2022/10/21 08:05:50;;;;;;;0.10;0.10;;;;;;;12.27;100.00;95965.25;4915025;29;20047;-75
2022/10/21 08:08:37;;;;;;;0.10;0.10;;;;;;;12.29;100.00;95967.66;4913663;29;20515;-75
2022/10/21 08:11:26;;;;;;;0.10;0.10;;;;;;;12.37;100.00;95972.47;4916245;29;20245;-76
2022/10/21 08:14:13;;;;;;;0.20;0.13;;;;;;;12.40;100.00;95966.56;4915272;29;20043;-74
2022/10/21 08:16:58;;;;;;;0.17;0.17;;;;;;;12.44;100.00;95966.81;4918516;29;20050;-75
2022/10/21 08:19:45;;;;;;;0.22;0.10;;;;;;;12.46;100.00;95983.47;4915296;29;20043;-75
2022/10/21 08:22:31;;;;;;;0.15;0.15;;;;;;;12.45;100.00;95969.25;4912787;29;20055;-77
2022/10/21 08:25:17;;;;;;;0.10;0.10;;;;;;;12.45;100.00;95976.47;4913833;29;20031;-74
2022/10/21 08:28:03;;;;;;;0.30;0.20;;;;;;;12.46;100.00;95962.81;4914837;29;20059;-75
2022/10/21 08:30:49;;;;;;;0.10;0.10;;;;;;;12.45;100.00;95968.44;4914037;29;20524;-76
2022/10/21 08:33:37;;;;;;;0.10;0.10;;;;;;;12.47;100.00;95969.78;4913845;29;20126;-75
2022/10/21 08:36:24;;;;;;;0.10;0.10;;;;;;;12.48;100.00;95970.59;4916185;29;20052;-77
2022/10/21 08:39:10;;;;;;;0.10;0.10;;;;;;;12.50;100.00;95971.91;4911557;29;20044;-74
2022/10/21 08:42:06;;;;;;;0.10;0.10;;;;;;;12.52;100.00;95958.22;4916334;29;20309;-72
2022/10/21 08:45:02;;;;;;;0.30;0.20;;;;;;;12.51;100.00;95970.84;4914936;29;20546;-75
2022/10/21 08:47:58;;;;;;;0.20;0.20;;;;;;;12.49;100.00;95970.31;4916214;29;20334;-75
2022/10/21 08:50:49;;;;;;;0.20;0.20;;;;;;;12.59;100.00;95955.25;4916479;29;20043;-74
2022/10/21 08:53:40;;;;;;;0.10;0.10;;;;;;;12.57;100.00;95960.09;4914490;29;20059;-75
2022/10/21 08:56:29;;;;;;;0.10;0.10;;;;;;;12.59;100.00;95966.00;4910484;29;20060;-75
2022/10/21 08:59:24;;;;;;;0.10;0.10;;;;;;;12.58;100.00;95969.75;4914459;29;20050;-75
2022/10/21 09:02:28;;;;;;;0.10;0.10;;;;;;;12.60;100.00;95967.59;4913625;28;20071;-77
2022/10/21 09:05:28;;;;;;;0.10;0.10;;;;;;;12.63;100.00;95967.06;4914237;29;20495;-75
2022/10/21 09:08:25;;;;;;;0.10;0.10;;;;;;;12.64;100.00;95961.41;4914876;28;20058;-75
2022/10/21 09:11:39;;;;;;;0.10;0.10;;;;;;;12.66;100.00;95974.56;4914313;29;20186;-76
2022/10/21 09:14:46;;;;;;;0.10;0.10;;;;;;;12.66;100.00;95963.81;4919546;29;20051;-75
2022/10/21 09:17:35;;;;;;;0.10;0.10;;;;;;;12.70;100.00;95972.94;4913812;29;20052;-76
2022/10/21 09:20:59;;;;;;;0.10;0.10;;;;;;;12.74;100.00;95979.38;4915071;29;20435;-75
2022/10/21 09:23:58;;;;;;;0.10;0.10;;;;;;;12.73;100.00;95972.41;4888860;29;20129;-75
2022/10/21 09:26:50;;;;;;;0.15;0.15;;;;;;;12.83;100.00;95977.72;4913322;29;20202;-76
2022/10/21 09:29:41;;;;;;;0.20;0.20;;;;;;;12.92;100.00;95975.25;4915157;29;20087;-75
2022/10/21 09:32:33;;;;;;;0.20;0.20;;;;;;;12.94;100.00;95975.81;4916210;28;20048;-75
2022/10/21 09:35:28;;;;;;;0.10;0.10;;;;;;;12.93;100.00;95983.06;4915279;29;20130;-77
2022/10/21 09:38:36;;;;;;;0.28;0.20;;;;;;;12.98;100.00;95979.53;4909882;29;20127;-75
2022/10/21 09:41:28;;;;;;;0.10;0.10;;;;;;;12.98;100.00;95980.34;4914171;29;20445;-76
2022/10/21 09:44:18;;;;;;;0.10;0.10;;;;;;;12.98;100.00;95992.97;4916787;29;20197;-75
2022/10/21 09:47:23;;;;;;;0.10;0.10;;;;;;;12.98;100.00;95992.97;4918261;28;20058;-76
2022/10/21 09:50:15;;;;;;;0.10;0.10;;;;;;;12.98;100.00;95984.91;4910730;29;20095;-77
2022/10/21 09:53:13;;;;;;;0.10;0.10;;;;;;;13.02;100.00;95986.78;4914753;29;20641;-74
2022/10/21 09:56:10;;;;;;;0.20;0.13;;;;;;;13.06;100.00;95993.19;4918600;29;20047;-77
2022/10/21 09:59:11;;;;;;;0.10;0.10;;;;;;;13.14;100.00;95988.34;4911543;29;20036;-74
2022/10/21 10:02:04;;;;;;;0.10;0.10;;;;;;;13.06;100.00;95985.16;4914853;29;20567;-75
2022/10/21 10:04:50;;;;;;;0.10;0.10;;;;;;;13.06;100.00;95966.34;4912577;29;20292;-75
2022/10/21 10:07:36;;;;;;;0.10;0.10;;;;;;;13.03;100.00;95972.28;4914926;29;20076;-75
2022/10/21 10:10:33;;;;;;;0.15;0.15;;;;;;;13.10;100.00;95978.16;4902293;29;20079;-76
2022/10/21 10:13:19;;;;;;;0.10;0.10;;;;;;;13.15;100.00;95976.50;4912164;29;20544;-75
2022/10/21 10:16:21;;;;;;;0.10;0.10;;;;;;;13.16;100.00;95975.47;4915972;29;20053;-75
2022/10/21 10:19:26;;;;;;;0.10;0.10;;;;;;;13.26;100.00;95978.13;4909331;29;20130;-76
2022/10/21 10:22:14;;;;;;;0.20;0.17;;;;;;;13.31;100.00;95986.16;4911649;29;20168;-75
2022/10/21 10:25:11;;;;;;;0.10;0.10;;;;;;;13.33;100.00;95968.66;4917496;29;20067;-76
2022/10/21 10:28:00;;;;;;;0.10;0.10;;;;;;;13.43;100.00;95970.50;4913169;29;20075;-76
2022/10/21 10:30:51;;;;;;;0.10;0.10;;;;;;;13.49;100.00;95966.69;4576420;28;10000178;-76
2022/10/21 10:33:37;;;;;;;0.10;0.10;;;;;;;13.46;100.00;95948.41;4905389;29;20059;-76
2022/10/21 10:36:33;;;;;;;0.10;0.10;;;;;;;13.27;100.00;95918.72;4923659;29;20044;-77
2022/10/21 10:39:29;;;;;;;0.10;0.10;;;;;;;13.22;100.00;95885.69;4920712;29;20218;-77
2022/10/21 10:42:20;;;;;;;0.10;0.10;;;;;;;13.13;100.00;95887.34;4917427;29;20445;-76
2022/10/21 10:45:19;;;;;;;0.10;0.10;;;;;;;13.24;100.00;95937.28;4919115;29;20048;-76
2022/10/21 10:48:06;;;;;;;0.20;0.10;;;;;;;13.45;100.00;95962.94;4906411;29;20122;-76
2022/10/21 10:50:53;;;;;;;0.10;0.10;;;;;;;13.57;100.00;95984.91;4920522;28;20075;-77
2022/10/21 10:53:39;;;;;;;0.15;0.15;;;;;;;13.57;100.00;95994.88;4917925;29;20139;-75
2022/10/21 10:56:39;;;;;;;0.10;0.10;;;;;;;13.60;100.00;96008.53;4915775;29;20052;-75
2022/10/21 11:00:13;;;;;;;0.10;0.10;;;;;;;13.61;100.00;96003.97;4916993;29;20050;-76
2022/10/21 11:03:05;;;;;;;0.20;0.20;;;;;;;13.68;100.00;95999.09;4902685;29;20496;-76
2022/10/21 11:05:56;;;;;;;0.10;0.10;;;;;;;13.52;100.00;96009.13;4918461;28;20381;-76
2022/10/21 11:08:47;;;;;;;0.10;0.10;;;;;;;13.62;100.00;96017.16;4917220;29;20047;-76
2022/10/21 11:11:38;;;;;;;0.10;0.10;;;;;;;13.66;100.00;96009.31;4915609;29;20043;-75
2022/10/21 11:14:24;;;;;;;0.15;0.15;;;;;;;13.85;100.00;96004.09;4916487;29;20134;-74
2022/10/21 11:17:20;;;;;;;0.20;0.20;;;;;;;14.09;100.00;95991.53;4917264;29;20073;-75
2022/10/21 11:20:12;;;;;;;0.10;0.10;;;;;;;14.14;100.00;96002.25;4913282;29;20039;-76
2022/10/21 11:23:20;;;;;;;0.20;0.13;;;;;;;14.09;100.00;95999.63;4918617;29;20040;-76
2022/10/21 11:26:32;;;;;;;0.10;0.10;;;;;;;14.13;100.00;96000.66;4918320;29;20044;-77
2022/10/21 11:29:37;;;;;;;0.20;0.20;;;;;;;13.95;100.00;96009.41;4915392;29;20051;-75
2022/10/21 11:32:48;;;;;;;0.10;0.10;;;;;;;14.00;100.00;96003.16;4889142;28;20052;-76
2022/10/21 11:36:03;;;;;;;0.10;0.10;;;;;;;14.03;100.00;95994.56;4914586;29;20051;-75
2022/10/21 11:39:12;;;;;;;0.10;0.10;;;;;;;14.01;100.00;95991.31;4893839;29;20162;-75
2022/10/21 11:42:21;;;;;;;0.10;0.10;;;;;;;14.12;100.00;96009.81;4913217;29;20043;-77
2022/10/21 11:45:37;;;;;;;0.40;0.30;;;;;;;14.77;100.00;95996.03;4910061;29;20528;-76
2022/10/21 11:48:48;;;;;;;0.15;0.15;;;;;;;15.39;100.00;95982.63;4917903;29;20040;-77
2022/10/21 11:51:58;;;;;;;0.10;0.10;;;;;;;15.14;100.00;95997.22;4914533;28;20118;-75
2022/10/21 11:55:01;;;;;;;0.10;0.10;;;;;;;14.62;100.00;95986.22;4917039;29;20043;-75
2022/10/21 11:58:01;;;;;;;0.10;0.10;;;;;;;14.92;100.00;95984.28;4916080;29;20099;-75
2022/10/21 12:01:09;;;;;;;0.10;0.10;;;;;;;14.92;100.00;95992.38;4918814;29;20552;-74
2022/10/21 12:04:18;;;;;;;0.10;0.10;;;;;;;15.14;100.00;95981.88;4912374;29;20485;-74
2022/10/21 12:07:23;;;;;;;0.10;0.10;;;;;;;15.02;100.00;95981.50;4915290;29;20047;-75
2022/10/21 12:10:29;;;;;;;0.10;0.10;;;;;;;15.28;100.00;95981.97;4917639;29;20059;-76
2022/10/21 12:13:44;;;;;;;0.20;0.20;;;;;;;16.17;100.00;95979.31;4914125;29;20067;-75
2022/10/21 12:16:32;;;;;;;0.17;0.17;;;;;;;20.01;100.00;95985.13;4918879;28;20194;-76
2022/10/21 12:19:19;;;;;;;0.13;0.13;;;;;;;18.82;100.00;95973.66;4913738;29;20098;-74
2022/10/21 12:22:09;;;;;;;0.20;0.20;;;;;;;19.02;100.00;95983.94;4916225;29;20064;-75
2022/10/21 12:25:16;;;;;;;0.13;0.13;;;;;;;17.33;100.00;95974.75;4919456;29;20039;-75
2022/10/21 12:28:19;;;;;;;0.10;0.10;;;;;;;16.30;100.00;95965.06;4916807;29;20040;-74
2022/10/21 12:31:26;;;;;;;0.10;0.10;;;;;;;15.94;100.00;95966.75;4915276;29;20044;-75
2022/10/21 12:34:13;;;;;;;0.10;0.10;;;;;;;15.99;100.00;95977.47;4884773;28;20052;-74
2022/10/21 12:37:00;;;;;;;0.10;0.10;;;;;;;16.22;100.00;95989.25;4916975;29;20496;-76
2022/10/21 12:39:49;;;;;;;0.20;0.20;;;;;;;16.66;100.00;95980.66;4914450;29;20051;-76
2022/10/21 12:42:35;;;;;;;0.13;0.13;;;;;;;17.54;100.00;95965.91;4915211;29;20063;-74
2022/10/21 12:45:34;;;;;;;0.20;0.20;;;;;;;22.13;100.00;95962.63;4915891;29;20159;-74
2022/10/21 12:48:44;;;;;;;0.20;0.20;;;;;;;23.33;100.00;95959.69;4904895;29;20062;-76
2022/10/21 12:51:33;;;;;;;0.30;0.30;;;;;;;23.91;96.90;95963.06;4913466;29;20080;-76
2022/10/21 12:54:23;;;;;;;0.17;0.17;;;;;;;20.31;100.00;95958.06;4911521;29;20055;-77
2022/10/21 12:57:21;;;;;;;0.10;0.10;;;;;;;18.35;100.00;95975.94;4915076;29;20115;-75
2022/10/21 13:00:21;;;;;;;0.20;0.20;;;;;;;20.51;100.00;95975.66;4914277;29;20463;-77
2022/10/21 13:03:08;;;;;;;0.10;0.10;;;;;;;18.67;100.00;95961.31;4908440;29;20040;-77
2022/10/21 13:06:03;;;;;;;0.10;0.10;;;;;;;17.85;100.00;95962.53;4913983;29;20044;-75
2022/10/21 13:08:51;;;;;;;0.13;0.13;;;;;;;17.91;100.00;95972.13;4912879;29;20628;-76
2022/10/21 13:11:38;;;;;;;0.17;0.17;;;;;;;18.01;100.00;95980.00;4917421;29;20052;-74
2022/10/21 13:14:28;;;;;;;0.20;0.20;;;;;;;18.06;100.00;95971.78;4912911;29;20047;-77
2022/10/21 13:17:21;;;;;;;0.10;0.10;;;;;;;17.57;100.00;95979.91;4913666;29;20040;-76